sensor_id;sensor_type;location;lat;lon;timestamp;temperature;humidity
35127;DHT22;21300;52.006;5.798;2023-07-13T00:00:42;21.00;71.90
35127;DHT22;21300;52.006;5.798;2023-07-13T00:03:08;21.00;71.90
35127;DHT22;21300;52.006;5.798;2023-07-13T00:05:34;21.00;72.00
35127;DHT22;21300;52.006;5.798;2023-07-13T00:07:59;21.00;72.10
35127;DHT22;21300;52.006;5.798;2023-07-13T00:10:25;20.90;72.00
35127;DHT22;21300;52.006;5.798;2023-07-13T00:12:51;20.90;72.10
35127;DHT22;21300;52.006;5.798;2023-07-13T00:15:24;20.90;72.10
35127;DHT22;21300;52.006;5.798;2023-07-13T00:17:51;20.90;72.20
35127;DHT22;21300;52.006;5.798;2023-07-13T00:20:17;20.90;72.20
35127;DHT22;21300;52.006;5.798;2023-07-13T00:22:43;20.90;72.30
35127;DHT22;21300;52.006;5.798;2023-07-13T00:25:10;20.80;72.20
35127;DHT22;21300;52.006;5.798;2023-07-13T00:27:36;20.80;72.30
35127;DHT22;21300;52.006;5.798;2023-07-13T00:30:02;20.80;72.30
35127;DHT22;21300;52.006;5.798;2023-07-13T00:32:28;20.80;72.30
35127;DHT22;21300;52.006;5.798;2023-07-13T00:34:55;20.80;72.30
35127;DHT22;21300;52.006;5.798;2023-07-13T00:37:20;20.80;72.40
35127;DHT22;21300;52.006;5.798;2023-07-13T00:39:46;20.80;72.50
35127;DHT22;21300;52.006;5.798;2023-07-13T00:42:12;20.80;72.50
35127;DHT22;21300;52.006;5.798;2023-07-13T00:44:38;20.70;72.40
35127;DHT22;21300;52.006;5.798;2023-07-13T00:47:05;20.70;72.50
35127;DHT22;21300;52.006;5.798;2023-07-13T00:49:32;20.70;72.50
35127;DHT22;21300;52.006;5.798;2023-07-13T00:52:07;20.70;72.50
35127;DHT22;21300;52.006;5.798;2023-07-13T00:54:38;20.70;72.60
35127;DHT22;21300;52.006;5.798;2023-07-13T00:57:07;20.70;72.60
35127;DHT22;21300;52.006;5.798;2023-07-13T00:59:36;20.70;72.60
35127;DHT22;21300;52.006;5.798;2023-07-13T01:02:03;20.60;72.60
35127;DHT22;21300;52.006;5.798;2023-07-13T01:04:29;20.60;72.70
35127;DHT22;21300;52.006;5.798;2023-07-13T01:06:55;20.60;72.60
35127;DHT22;21300;52.006;5.798;2023-07-13T01:09:22;20.60;72.70
35127;DHT22;21300;52.006;5.798;2023-07-13T01:11:48;20.60;72.70
35127;DHT22;21300;52.006;5.798;2023-07-13T01:14:14;20.50;72.70
35127;DHT22;21300;52.006;5.798;2023-07-13T01:16:41;20.50;72.70
35127;DHT22;21300;52.006;5.798;2023-07-13T01:19:35;20.50;72.80
35127;DHT22;21300;52.006;5.798;2023-07-13T01:22:09;20.50;72.80
35127;DHT22;21300;52.006;5.798;2023-07-13T01:24:38;20.50;72.80
35127;DHT22;21300;52.006;5.798;2023-07-13T01:27:05;20.40;72.80
35127;DHT22;21300;52.006;5.798;2023-07-13T01:29:32;20.40;72.80
35127;DHT22;21300;52.006;5.798;2023-07-13T01:31:58;20.40;72.90
35127;DHT22;21300;52.006;5.798;2023-07-13T01:34:26;20.40;72.90
35127;DHT22;21300;52.006;5.798;2023-07-13T01:36:52;20.40;72.90
35127;DHT22;21300;52.006;5.798;2023-07-13T01:39:22;20.30;72.90
35127;DHT22;21300;52.006;5.798;2023-07-13T01:41:48;20.30;72.90
35127;DHT22;21300;52.006;5.798;2023-07-13T01:44:14;20.30;73.00
35127;DHT22;21300;52.006;5.798;2023-07-13T01:46:40;20.30;73.00
35127;DHT22;21300;52.006;5.798;2023-07-13T01:49:06;20.30;73.00
35127;DHT22;21300;52.006;5.798;2023-07-13T01:51:31;20.30;73.10
35127;DHT22;21300;52.006;5.798;2023-07-13T01:53:57;20.30;73.10
35127;DHT22;21300;52.006;5.798;2023-07-13T01:59:08;20.20;73.10
35127;DHT22;21300;52.006;5.798;2023-07-13T02:01:34;20.20;73.10
35127;DHT22;21300;52.006;5.798;2023-07-13T02:03:59;20.20;73.20
35127;DHT22;21300;52.006;5.798;2023-07-13T02:06:25;20.20;73.20
35127;DHT22;21300;52.006;5.798;2023-07-13T02:08:51;20.20;73.20
35127;DHT22;21300;52.006;5.798;2023-07-13T02:11:16;20.20;73.20
35127;DHT22;21300;52.006;5.798;2023-07-13T02:13:43;20.20;73.20
35127;DHT22;21300;52.006;5.798;2023-07-13T02:16:09;20.20;73.20
35127;DHT22;21300;52.006;5.798;2023-07-13T02:18:35;20.10;73.20
35127;DHT22;21300;52.006;5.798;2023-07-13T02:21:00;20.10;73.20
35127;DHT22;21300;52.006;5.798;2023-07-13T02:23:26;20.10;73.20
35127;DHT22;21300;52.006;5.798;2023-07-13T02:25:59;20.10;73.30
35127;DHT22;21300;52.006;5.798;2023-07-13T02:28:25;20.10;73.40
35127;DHT22;21300;52.006;5.798;2023-07-13T02:30:51;20.00;73.30
35127;DHT22;21300;52.006;5.798;2023-07-13T02:33:17;20.00;73.30
35127;DHT22;21300;52.006;5.798;2023-07-13T02:35:42;20.00;73.30
35127;DHT22;21300;52.006;5.798;2023-07-13T02:38:08;20.00;73.40
35127;DHT22;21300;52.006;5.798;2023-07-13T02:40:34;20.00;73.40
35127;DHT22;21300;52.006;5.798;2023-07-13T02:43:01;20.00;73.40
35127;DHT22;21300;52.006;5.798;2023-07-13T02:45:27;20.00;73.30
35127;DHT22;21300;52.006;5.798;2023-07-13T02:47:54;20.00;73.40
35127;DHT22;21300;52.006;5.798;2023-07-13T02:50:20;19.90;73.30
35127;DHT22;21300;52.006;5.798;2023-07-13T02:52:45;19.90;73.40
35127;DHT22;21300;52.006;5.798;2023-07-13T02:55:11;19.90;73.50
35127;DHT22;21300;52.006;5.798;2023-07-13T02:57:37;19.90;73.50
35127;DHT22;21300;52.006;5.798;2023-07-13T03:00:04;19.90;73.50
35127;DHT22;21300;52.006;5.798;2023-07-13T03:02:33;19.90;73.60
35127;DHT22;21300;52.006;5.798;2023-07-13T03:04:59;19.90;73.60
35127;DHT22;21300;52.006;5.798;2023-07-13T03:07:25;19.80;73.50
35127;DHT22;21300;52.006;5.798;2023-07-13T03:09:58;19.80;73.50
35127;DHT22;21300;52.006;5.798;2023-07-13T03:12:24;19.80;73.50
35127;DHT22;21300;52.006;5.798;2023-07-13T03:14:50;19.80;73.60
35127;DHT22;21300;52.006;5.798;2023-07-13T03:17:16;19.80;73.70
35127;DHT22;21300;52.006;5.798;2023-07-13T03:19:42;19.70;73.60
35127;DHT22;21300;52.006;5.798;2023-07-13T03:22:09;19.70;73.70
35127;DHT22;21300;52.006;5.798;2023-07-13T03:24:35;19.70;73.70
35127;DHT22;21300;52.006;5.798;2023-07-13T03:27:03;19.70;73.80
35127;DHT22;21300;52.006;5.798;2023-07-13T03:29:28;19.70;73.80
35127;DHT22;21300;52.006;5.798;2023-07-13T03:31:54;19.60;73.70
35127;DHT22;21300;52.006;5.798;2023-07-13T03:34:20;19.50;73.60
35127;DHT22;21300;52.006;5.798;2023-07-13T03:36:45;19.20;73.80
35127;DHT22;21300;52.006;5.798;2023-07-13T03:39:11;19.00;74.10
35127;DHT22;21300;52.006;5.798;2023-07-13T03:41:37;18.80;74.60
35127;DHT22;21300;52.006;5.798;2023-07-13T03:44:03;18.70;75.10
35127;DHT22;21300;52.006;5.798;2023-07-13T03:46:29;18.60;75.40
35127;DHT22;21300;52.006;5.798;2023-07-13T03:48:55;18.50;75.70
35127;DHT22;21300;52.006;5.798;2023-07-13T03:51:21;18.50;76.10
35127;DHT22;21300;52.006;5.798;2023-07-13T03:53:47;18.30;76.20
35127;DHT22;21300;52.006;5.798;2023-07-13T03:56:15;18.30;76.50
35127;DHT22;21300;52.006;5.798;2023-07-13T03:58:42;18.30;76.90
35127;DHT22;21300;52.006;5.798;2023-07-13T04:01:27;18.20;76.80
35127;DHT22;21300;52.006;5.798;2023-07-13T04:03:52;18.20;76.80
35127;DHT22;21300;52.006;5.798;2023-07-13T04:06:21;18.10;77.20
35127;DHT22;21300;52.006;5.798;2023-07-13T04:08:54;18.00;77.30
35127;DHT22;21300;52.006;5.798;2023-07-13T04:11:22;18.00;77.70
35127;DHT22;21300;52.006;5.798;2023-07-13T04:13:48;18.00;78.10
35127;DHT22;21300;52.006;5.798;2023-07-13T04:16:14;17.90;78.10
35127;DHT22;21300;52.006;5.798;2023-07-13T04:18:40;17.90;78.30
35127;DHT22;21300;52.006;5.798;2023-07-13T04:21:07;17.90;78.30
35127;DHT22;21300;52.006;5.798;2023-07-13T04:23:32;17.80;78.60
35127;DHT22;21300;52.006;5.798;2023-07-13T04:25:58;17.80;79.30
35127;DHT22;21300;52.006;5.798;2023-07-13T04:28:25;17.80;78.70
35127;DHT22;21300;52.006;5.798;2023-07-13T04:30:51;17.80;79.00
35127;DHT22;21300;52.006;5.798;2023-07-13T04:33:18;17.70;79.80
35127;DHT22;21300;52.006;5.798;2023-07-13T04:35:52;17.70;79.40
35127;DHT22;21300;52.006;5.798;2023-07-13T04:38:27;17.70;79.30
35127;DHT22;21300;52.006;5.798;2023-07-13T04:40:55;17.70;79.60
35127;DHT22;21300;52.006;5.798;2023-07-13T04:43:21;17.70;79.70
35127;DHT22;21300;52.006;5.798;2023-07-13T04:45:47;17.70;79.90
35127;DHT22;21300;52.006;5.798;2023-07-13T04:48:12;17.70;80.00
35127;DHT22;21300;52.006;5.798;2023-07-13T04:50:38;17.70;80.70
35127;DHT22;21300;52.006;5.798;2023-07-13T04:53:05;17.70;80.60
35127;DHT22;21300;52.006;5.798;2023-07-13T04:55:31;17.70;80.70
35127;DHT22;21300;52.006;5.798;2023-07-13T04:57:57;17.70;80.50
35127;DHT22;21300;52.006;5.798;2023-07-13T05:00:24;17.70;80.60
35127;DHT22;21300;52.006;5.798;2023-07-13T05:02:50;17.70;80.80
35127;DHT22;21300;52.006;5.798;2023-07-13T05:05:16;17.70;80.80
35127;DHT22;21300;52.006;5.798;2023-07-13T05:07:42;17.70;81.10
35127;DHT22;21300;52.006;5.798;2023-07-13T05:10:08;17.70;81.60
35127;DHT22;21300;52.006;5.798;2023-07-13T05:12:34;17.70;81.20
35127;DHT22;21300;52.006;5.798;2023-07-13T05:15:00;17.70;81.60
35127;DHT22;21300;52.006;5.798;2023-07-13T05:17:26;17.50;84.40
35127;DHT22;21300;52.006;5.798;2023-07-13T05:19:52;17.40;83.40
35127;DHT22;21300;52.006;5.798;2023-07-13T05:22:17;17.50;83.10
35127;DHT22;21300;52.006;5.798;2023-07-13T05:24:43;17.60;82.90
35127;DHT22;21300;52.006;5.798;2023-07-13T05:27:09;17.70;82.70
35127;DHT22;21300;52.006;5.798;2023-07-13T05:29:34;17.70;82.90
35127;DHT22;21300;52.006;5.798;2023-07-13T05:32:00;17.70;82.60
35127;DHT22;21300;52.006;5.798;2023-07-13T05:34:26;17.70;82.50
35127;DHT22;21300;52.006;5.798;2023-07-13T05:36:52;17.80;82.60
35127;DHT22;21300;52.006;5.798;2023-07-13T05:39:18;17.80;82.60
35127;DHT22;21300;52.006;5.798;2023-07-13T05:41:44;17.80;83.10
35127;DHT22;21300;52.006;5.798;2023-07-13T05:44:10;17.80;82.70
35127;DHT22;21300;52.006;5.798;2023-07-13T05:46:36;17.90;83.00
35127;DHT22;21300;52.006;5.798;2023-07-13T05:49:01;17.90;83.30
35127;DHT22;21300;52.006;5.798;2023-07-13T05:51:27;17.90;83.40
35127;DHT22;21300;52.006;5.798;2023-07-13T05:53:52;17.90;83.20
35127;DHT22;21300;52.006;5.798;2023-07-13T05:56:18;18.00;83.30
35127;DHT22;21300;52.006;5.798;2023-07-13T05:58:44;18.00;83.00
35127;DHT22;21300;52.006;5.798;2023-07-13T06:01:12;18.00;82.80
35127;DHT22;21300;52.006;5.798;2023-07-13T06:03:38;18.10;83.10
35127;DHT22;21300;52.006;5.798;2023-07-13T06:06:08;18.10;83.10
35127;DHT22;21300;52.006;5.798;2023-07-13T06:08:34;18.10;83.00
35127;DHT22;21300;52.006;5.798;2023-07-13T06:11:09;18.10;83.00
35127;DHT22;21300;52.006;5.798;2023-07-13T06:13:35;18.00;84.20
35127;DHT22;21300;52.006;5.798;2023-07-13T06:16:01;18.00;84.40
35127;DHT22;21300;52.006;5.798;2023-07-13T06:18:31;18.10;83.90
35127;DHT22;21300;52.006;5.798;2023-07-13T06:20:56;18.10;83.60
35127;DHT22;21300;52.006;5.798;2023-07-13T06:23:23;18.20;83.50
35127;DHT22;21300;52.006;5.798;2023-07-13T06:25:49;18.30;83.10
35127;DHT22;21300;52.006;5.798;2023-07-13T06:28:14;18.30;82.80
35127;DHT22;21300;52.006;5.798;2023-07-13T06:30:40;18.40;82.60
35127;DHT22;21300;52.006;5.798;2023-07-13T06:33:06;18.40;82.30
35127;DHT22;21300;52.006;5.798;2023-07-13T06:35:32;18.40;82.10
35127;DHT22;21300;52.006;5.798;2023-07-13T06:37:57;18.40;82.20
35127;DHT22;21300;52.006;5.798;2023-07-13T06:40:23;18.40;83.00
35127;DHT22;21300;52.006;5.798;2023-07-13T06:42:49;18.40;83.70
35127;DHT22;21300;52.006;5.798;2023-07-13T06:45:14;18.40;83.70
35127;DHT22;21300;52.006;5.798;2023-07-13T06:47:40;18.40;83.70
35127;DHT22;21300;52.006;5.798;2023-07-13T06:50:07;18.40;83.70
35127;DHT22;21300;52.006;5.798;2023-07-13T06:52:33;18.50;83.80
35127;DHT22;21300;52.006;5.798;2023-07-13T06:54:58;18.60;83.60
35127;DHT22;21300;52.006;5.798;2023-07-13T06:57:24;18.60;83.80
35127;DHT22;21300;52.006;5.798;2023-07-13T06:59:50;18.60;83.60
35127;DHT22;21300;52.006;5.798;2023-07-13T07:02:15;18.70;83.90
35127;DHT22;21300;52.006;5.798;2023-07-13T07:04:41;18.70;84.00
35127;DHT22;21300;52.006;5.798;2023-07-13T07:07:07;18.70;84.60
35127;DHT22;21300;52.006;5.798;2023-07-13T07:09:32;18.70;84.40
35127;DHT22;21300;52.006;5.798;2023-07-13T07:11:58;18.70;84.50
35127;DHT22;21300;52.006;5.798;2023-07-13T07:14:23;18.80;84.40
35127;DHT22;21300;52.006;5.798;2023-07-13T07:16:50;18.80;84.30
35127;DHT22;21300;52.006;5.798;2023-07-13T07:19:16;18.80;84.60
35127;DHT22;21300;52.006;5.798;2023-07-13T07:21:41;18.80;85.00
35127;DHT22;21300;52.006;5.798;2023-07-13T07:24:07;18.80;84.80
35127;DHT22;21300;52.006;5.798;2023-07-13T07:26:33;18.80;84.80
35127;DHT22;21300;52.006;5.798;2023-07-13T07:28:58;18.80;84.80
35127;DHT22;21300;52.006;5.798;2023-07-13T07:31:24;18.90;85.30
35127;DHT22;21300;52.006;5.798;2023-07-13T07:33:50;18.90;85.30
35127;DHT22;21300;52.006;5.798;2023-07-13T07:36:16;18.90;85.60
35127;DHT22;21300;52.006;5.798;2023-07-13T07:38:42;18.90;85.30
35127;DHT22;21300;52.006;5.798;2023-07-13T07:41:08;19.00;85.10
35127;DHT22;21300;52.006;5.798;2023-07-13T07:43:34;18.90;84.80
35127;DHT22;21300;52.006;5.798;2023-07-13T07:46:00;19.00;84.90
35127;DHT22;21300;52.006;5.798;2023-07-13T07:48:25;19.00;84.70
35127;DHT22;21300;52.006;5.798;2023-07-13T07:50:51;19.00;84.40
35127;DHT22;21300;52.006;5.798;2023-07-13T07:53:17;19.10;84.40
35127;DHT22;21300;52.006;5.798;2023-07-13T07:55:43;19.10;84.40
35127;DHT22;21300;52.006;5.798;2023-07-13T07:58:08;19.10;84.20
35127;DHT22;21300;52.006;5.798;2023-07-13T08:00:34;19.20;84.20
35127;DHT22;21300;52.006;5.798;2023-07-13T08:03:01;19.20;83.90
35127;DHT22;21300;52.006;5.798;2023-07-13T08:05:27;19.20;83.80
35127;DHT22;21300;52.006;5.798;2023-07-13T08:07:52;19.20;83.90
35127;DHT22;21300;52.006;5.798;2023-07-13T08:10:18;19.20;83.90
35127;DHT22;21300;52.006;5.798;2023-07-13T08:12:44;19.30;83.60
35127;DHT22;21300;52.006;5.798;2023-07-13T08:15:13;19.30;83.40
35127;DHT22;21300;52.006;5.798;2023-07-13T08:17:39;19.30;83.30
35127;DHT22;21300;52.006;5.798;2023-07-13T08:20:05;19.40;83.40
35127;DHT22;21300;52.006;5.798;2023-07-13T08:22:31;19.40;83.20
35127;DHT22;21300;52.006;5.798;2023-07-13T08:24:57;19.40;83.40
35127;DHT22;21300;52.006;5.798;2023-07-13T08:27:24;19.50;83.60
35127;DHT22;21300;52.006;5.798;2023-07-13T08:29:50;19.50;83.80
35127;DHT22;21300;52.006;5.798;2023-07-13T08:32:18;19.60;83.40
35127;DHT22;21300;52.006;5.798;2023-07-13T08:34:43;19.60;83.50
35127;DHT22;21300;52.006;5.798;2023-07-13T08:37:09;19.60;83.40
35127;DHT22;21300;52.006;5.798;2023-07-13T08:39:35;19.60;83.30
35127;DHT22;21300;52.006;5.798;2023-07-13T08:42:37;19.70;83.20
35127;DHT22;21300;52.006;5.798;2023-07-13T08:45:23;19.70;83.00
35127;DHT22;21300;52.006;5.798;2023-07-13T08:48:05;19.70;83.00
35127;DHT22;21300;52.006;5.798;2023-07-13T08:50:42;19.80;82.80
35127;DHT22;21300;52.006;5.798;2023-07-13T08:53:12;19.80;82.70
35127;DHT22;21300;52.006;5.798;2023-07-13T08:55:38;19.80;82.80
35127;DHT22;21300;52.006;5.798;2023-07-13T08:58:11;19.90;82.80
35127;DHT22;21300;52.006;5.798;2023-07-13T09:00:52;19.90;82.50
35127;DHT22;21300;52.006;5.798;2023-07-13T09:03:25;20.00;82.30
35127;DHT22;21300;52.006;5.798;2023-07-13T09:05:57;20.00;82.20
35127;DHT22;21300;52.006;5.798;2023-07-13T09:09:18;20.00;82.00
35127;DHT22;21300;52.006;5.798;2023-07-13T09:14:19;20.10;81.80
35127;DHT22;21300;52.006;5.798;2023-07-13T09:16:51;20.10;81.50
35127;DHT22;21300;52.006;5.798;2023-07-13T09:19:23;20.10;81.30
35127;DHT22;21300;52.006;5.798;2023-07-13T09:21:51;20.20;81.20
35127;DHT22;21300;52.006;5.798;2023-07-13T09:27:22;20.30;80.90
35127;DHT22;21300;52.006;5.798;2023-07-13T09:29:54;20.30;81.00
35127;DHT22;21300;52.006;5.798;2023-07-13T09:32:23;20.30;80.60
35127;DHT22;21300;52.006;5.798;2023-07-13T09:34:51;20.40;80.50
35127;DHT22;21300;52.006;5.798;2023-07-13T09:37:18;20.40;80.50
35127;DHT22;21300;52.006;5.798;2023-07-13T09:39:44;20.40;80.30
35127;DHT22;21300;52.006;5.798;2023-07-13T09:42:18;20.40;80.20
35127;DHT22;21300;52.006;5.798;2023-07-13T09:49:57;20.50;80.00
35127;DHT22;21300;52.006;5.798;2023-07-13T09:52:23;20.60;80.00
35127;DHT22;21300;52.006;5.798;2023-07-13T09:54:51;20.60;80.00
35127;DHT22;21300;52.006;5.798;2023-07-13T09:57:23;20.60;79.70
35127;DHT22;21300;52.006;5.798;2023-07-13T09:59:50;20.60;79.80
35127;DHT22;21300;52.006;5.798;2023-07-13T10:02:32;20.60;79.60
35127;DHT22;21300;52.006;5.798;2023-07-13T10:05:02;20.70;79.60
35127;DHT22;21300;52.006;5.798;2023-07-13T10:07:29;20.70;79.50
35127;DHT22;21300;52.006;5.798;2023-07-13T10:10:00;20.70;79.30
35127;DHT22;21300;52.006;5.798;2023-07-13T10:12:28;20.80;79.30
35127;DHT22;21300;52.006;5.798;2023-07-13T10:14:56;20.80;79.20
35127;DHT22;21300;52.006;5.798;2023-07-13T10:17:29;20.80;79.10
35127;DHT22;21300;52.006;5.798;2023-07-13T10:20:04;20.90;78.90
35127;DHT22;21300;52.006;5.798;2023-07-13T10:25:25;20.90;78.70
35127;DHT22;21300;52.006;5.798;2023-07-13T10:27:54;20.90;78.70
35127;DHT22;21300;52.006;5.798;2023-07-13T10:30:25;21.00;78.60
35127;DHT22;21300;52.006;5.798;2023-07-13T10:32:54;21.00;78.60
35127;DHT22;21300;52.006;5.798;2023-07-13T10:35:21;21.00;78.40
35127;DHT22;21300;52.006;5.798;2023-07-13T10:37:56;21.10;78.50
35127;DHT22;21300;52.006;5.798;2023-07-13T10:43:47;21.10;78.50
35127;DHT22;21300;52.006;5.798;2023-07-13T10:46:18;21.20;78.60
35127;DHT22;21300;52.006;5.798;2023-07-13T10:48:48;21.20;79.00
35127;DHT22;21300;52.006;5.798;2023-07-13T10:51:17;21.20;79.10
35127;DHT22;21300;52.006;5.798;2023-07-13T10:53:43;21.30;79.00
35127;DHT22;21300;52.006;5.798;2023-07-13T10:56:29;21.30;78.70
35127;DHT22;21300;52.006;5.798;2023-07-13T10:59:25;21.30;78.50
35127;DHT22;21300;52.006;5.798;2023-07-13T11:04:39;21.30;78.30
35127;DHT22;21300;52.006;5.798;2023-07-13T11:07:17;21.30;78.30
35127;DHT22;21300;52.006;5.798;2023-07-13T11:09:43;21.40;77.90
35127;DHT22;21300;52.006;5.798;2023-07-13T11:17:33;21.50;76.90
35127;DHT22;21300;52.006;5.798;2023-07-13T11:25:30;21.60;77.70
35127;DHT22;21300;52.006;5.798;2023-07-13T11:36:14;21.70;78.60
35127;DHT22;21300;52.006;5.798;2023-07-13T11:39:03;21.80;78.70
35127;DHT22;21300;52.006;5.798;2023-07-13T11:41:34;21.80;78.60
35127;DHT22;21300;52.006;5.798;2023-07-13T11:44:28;21.80;78.40
35127;DHT22;21300;52.006;5.798;2023-07-13T11:46:56;21.80;78.10
35127;DHT22;21300;52.006;5.798;2023-07-13T11:49:28;21.80;78.10
35127;DHT22;21300;52.006;5.798;2023-07-13T11:51:55;21.80;78.00
35127;DHT22;21300;52.006;5.798;2023-07-13T11:54:31;21.90;78.00
35127;DHT22;21300;52.006;5.798;2023-07-13T11:59:46;21.90;77.70
35127;DHT22;21300;52.006;5.798;2023-07-13T12:02:27;22.00;77.70
35127;DHT22;21300;52.006;5.798;2023-07-13T12:04:54;22.00;77.60
35127;DHT22;21300;52.006;5.798;2023-07-13T12:07:19;22.00;77.50
35127;DHT22;21300;52.006;5.798;2023-07-13T12:09:45;22.10;77.50
35127;DHT22;21300;52.006;5.798;2023-07-13T12:12:13;22.10;77.50
35127;DHT22;21300;52.006;5.798;2023-07-13T12:14:38;22.10;77.40
35127;DHT22;21300;52.006;5.798;2023-07-13T12:17:22;22.10;77.20
35127;DHT22;21300;52.006;5.798;2023-07-13T12:19:49;22.10;77.20
35127;DHT22;21300;52.006;5.798;2023-07-13T12:22:17;22.20;76.80
35127;DHT22;21300;52.006;5.798;2023-07-13T12:24:44;22.20;76.00
35127;DHT22;21300;52.006;5.798;2023-07-13T12:27:25;22.20;75.90
35127;DHT22;21300;52.006;5.798;2023-07-13T12:29:53;22.30;76.20
35127;DHT22;21300;52.006;5.798;2023-07-13T12:32:24;22.30;76.50
35127;DHT22;21300;52.006;5.798;2023-07-13T12:34:55;22.30;76.50
35127;DHT22;21300;52.006;5.798;2023-07-13T12:37:22;22.30;76.50
35127;DHT22;21300;52.006;5.798;2023-07-13T12:39:49;22.30;76.50
35127;DHT22;21300;52.006;5.798;2023-07-13T12:42:26;22.40;76.40
35127;DHT22;21300;52.006;5.798;2023-07-13T12:45:01;22.40;76.20
35127;DHT22;21300;52.006;5.798;2023-07-13T12:47:29;22.50;76.30
35127;DHT22;21300;52.006;5.798;2023-07-13T12:49:58;22.50;76.40
35127;DHT22;21300;52.006;5.798;2023-07-13T12:52:30;22.50;77.30
35127;DHT22;21300;52.006;5.798;2023-07-13T12:55:10;22.50;76.50
35127;DHT22;21300;52.006;5.798;2023-07-13T12:57:56;22.50;76.30
35127;DHT22;21300;52.006;5.798;2023-07-13T13:00:30;22.60;76.50
35127;DHT22;21300;52.006;5.798;2023-07-13T13:03:02;22.60;76.40
35127;DHT22;21300;52.006;5.798;2023-07-13T13:05:31;22.60;76.50
35127;DHT22;21300;52.006;5.798;2023-07-13T13:07:57;22.70;76.40
35127;DHT22;21300;52.006;5.798;2023-07-13T13:10:23;22.70;76.40
35127;DHT22;21300;52.006;5.798;2023-07-13T13:12:49;22.70;76.50
35127;DHT22;21300;52.006;5.798;2023-07-13T13:15:15;22.80;76.50
35127;DHT22;21300;52.006;5.798;2023-07-13T13:17:42;22.80;76.50
35127;DHT22;21300;52.006;5.798;2023-07-13T13:20:16;22.80;76.40
35127;DHT22;21300;52.006;5.798;2023-07-13T13:22:42;22.80;76.40
35127;DHT22;21300;52.006;5.798;2023-07-13T13:25:11;22.90;76.30
35127;DHT22;21300;52.006;5.798;2023-07-13T13:27:37;22.90;76.40
35127;DHT22;21300;52.006;5.798;2023-07-13T13:30:13;22.90;76.40
35127;DHT22;21300;52.006;5.798;2023-07-13T13:32:42;22.90;76.30
35127;DHT22;21300;52.006;5.798;2023-07-13T13:35:20;22.90;76.40
35127;DHT22;21300;52.006;5.798;2023-07-13T13:37:47;23.00;75.80
35127;DHT22;21300;52.006;5.798;2023-07-13T13:40:21;23.00;75.80
35127;DHT22;21300;52.006;5.798;2023-07-13T13:42:50;23.00;75.60
35127;DHT22;21300;52.006;5.798;2023-07-13T13:45:18;23.00;75.50
35127;DHT22;21300;52.006;5.798;2023-07-13T13:47:44;23.00;74.60
35127;DHT22;21300;52.006;5.798;2023-07-13T13:50:16;23.10;74.90
35127;DHT22;21300;52.006;5.798;2023-07-13T13:52:42;23.10;74.50
35127;DHT22;21300;52.006;5.798;2023-07-13T13:55:13;23.20;74.50
35127;DHT22;21300;52.006;5.798;2023-07-13T13:57:39;23.20;74.60
35127;DHT22;21300;52.006;5.798;2023-07-13T14:00:05;23.20;73.80
35127;DHT22;21300;52.006;5.798;2023-07-13T14:02:31;23.20;73.70
35127;DHT22;21300;52.006;5.798;2023-07-13T14:05:00;23.20;73.80
35127;DHT22;21300;52.006;5.798;2023-07-13T14:07:27;23.20;73.60
35127;DHT22;21300;52.006;5.798;2023-07-13T14:09:57;23.30;73.50
35127;DHT22;21300;52.006;5.798;2023-07-13T14:12:23;23.30;73.30
35127;DHT22;21300;52.006;5.798;2023-07-13T14:14:54;23.30;73.20
35127;DHT22;21300;52.006;5.798;2023-07-13T14:17:22;23.30;73.00
35127;DHT22;21300;52.006;5.798;2023-07-13T14:19:50;23.30;72.70
35127;DHT22;21300;52.006;5.798;2023-07-13T14:22:20;23.40;72.80
35127;DHT22;21300;52.006;5.798;2023-07-13T14:24:46;23.40;72.20
35127;DHT22;21300;52.006;5.798;2023-07-13T14:27:12;23.40;72.30
35127;DHT22;21300;52.006;5.798;2023-07-13T14:29:38;23.40;72.50
35127;DHT22;21300;52.006;5.798;2023-07-13T14:32:05;23.40;72.30
35127;DHT22;21300;52.006;5.798;2023-07-13T14:34:31;23.50;72.20
35127;DHT22;21300;52.006;5.798;2023-07-13T14:36:57;23.50;72.60
35127;DHT22;21300;52.006;5.798;2023-07-13T14:39:24;23.50;72.40
35127;DHT22;21300;52.006;5.798;2023-07-13T14:41:51;23.50;71.40
35127;DHT22;21300;52.006;5.798;2023-07-13T14:44:20;23.50;71.20
35127;DHT22;21300;52.006;5.798;2023-07-13T14:46:46;23.50;71.30
35127;DHT22;21300;52.006;5.798;2023-07-13T14:49:31;23.60;71.00
35127;DHT22;21300;52.006;5.798;2023-07-13T14:51:59;23.60;71.00
35127;DHT22;21300;52.006;5.798;2023-07-13T14:54:26;23.60;70.90
35127;DHT22;21300;52.006;5.798;2023-07-13T14:56:52;23.60;70.50
35127;DHT22;21300;52.006;5.798;2023-07-13T14:59:18;23.60;70.60
35127;DHT22;21300;52.006;5.798;2023-07-13T15:01:48;23.60;70.40
35127;DHT22;21300;52.006;5.798;2023-07-13T15:04:14;23.60;70.40
35127;DHT22;21300;52.006;5.798;2023-07-13T15:06:59;23.60;70.80
35127;DHT22;21300;52.006;5.798;2023-07-13T15:09:26;23.70;71.10
35127;DHT22;21300;52.006;5.798;2023-07-13T15:11:53;23.70;70.90
35127;DHT22;21300;52.006;5.798;2023-07-13T15:14:19;23.60;70.00
35127;DHT22;21300;52.006;5.798;2023-07-13T15:16:47;23.60;70.00
35127;DHT22;21300;52.006;5.798;2023-07-13T15:19:15;23.70;69.70
35127;DHT22;21300;52.006;5.798;2023-07-13T15:21:42;23.70;69.50
35127;DHT22;21300;52.006;5.798;2023-07-13T15:24:10;23.70;69.40
35127;DHT22;21300;52.006;5.798;2023-07-13T15:26:36;23.70;69.40
35127;DHT22;21300;52.006;5.798;2023-07-13T15:29:02;23.70;69.40
35127;DHT22;21300;52.006;5.798;2023-07-13T15:31:28;23.70;70.20
35127;DHT22;21300;52.006;5.798;2023-07-13T15:33:56;23.70;70.40
35127;DHT22;21300;52.006;5.798;2023-07-13T15:36:23;23.70;70.20
35127;DHT22;21300;52.006;5.798;2023-07-13T15:38:55;23.70;70.20
35127;DHT22;21300;52.006;5.798;2023-07-13T15:41:23;23.70;70.10
35127;DHT22;21300;52.006;5.798;2023-07-13T15:44:23;23.70;70.50
35127;DHT22;21300;52.006;5.798;2023-07-13T15:46:49;23.70;70.60
35127;DHT22;21300;52.006;5.798;2023-07-13T15:49:15;23.70;70.70
35127;DHT22;21300;52.006;5.798;2023-07-13T15:51:41;23.70;70.50
35127;DHT22;21300;52.006;5.798;2023-07-13T15:54:13;23.70;70.60
35127;DHT22;21300;52.006;5.798;2023-07-13T15:56:40;23.70;70.50
35127;DHT22;21300;52.006;5.798;2023-07-13T15:59:10;23.70;70.40
35127;DHT22;21300;52.006;5.798;2023-07-13T16:01:38;23.70;70.40
35127;DHT22;21300;52.006;5.798;2023-07-13T16:04:04;23.70;70.50
35127;DHT22;21300;52.006;5.798;2023-07-13T16:06:36;23.70;70.50
35127;DHT22;21300;52.006;5.798;2023-07-13T16:09:03;23.70;70.60
35127;DHT22;21300;52.006;5.798;2023-07-13T16:14:22;23.70;70.70
35127;DHT22;21300;52.006;5.798;2023-07-13T16:16:50;23.70;70.80
35127;DHT22;21300;52.006;5.798;2023-07-13T16:19:16;23.70;70.70
35127;DHT22;21300;52.006;5.798;2023-07-13T16:21:45;23.70;70.80
35127;DHT22;21300;52.006;5.798;2023-07-13T16:24:23;23.70;70.90